Time;durP1;ratioP1;P1;durP2;ratioP2;P2;SDS_P1;SDS_P2;PMS_P1;PMS_P2;Temp;Humidity;BMP_temperature;BMP_pressure;BME280_temperature;BME280_humidity;BME280_pressure;Samples;Min_cycle;Max_cycle;Signal;HPM_P1;HPM_P2
2022/08/29 00:02:22;;;;;;;2.95;1.50;;;;;;;15.52;74.79;101798.81;6223468;28;20046;-83
2022/08/29 00:05:26;;;;;;;4.30;1.10;;;;;;;15.48;75.40;101796.31;6223157;28;20417;-82
2022/08/29 00:08:28;;;;;;;3.58;1.40;;;;;;;15.50;75.49;101793.59;6223503;28;20041;-82
2022/08/29 00:11:29;;;;;;;4.28;1.80;;;;;;;15.46;75.70;101797.38;6223080;28;20042;-81
2022/08/29 00:14:30;;;;;;;4.45;1.70;;;;;;;15.34;76.39;101790.97;6223387;28;20049;-81
2022/08/29 00:17:33;;;;;;;4.95;1.73;;;;;;;15.25;77.45;101794.13;6223705;28;20053;-82
2022/08/29 00:20:36;;;;;;;7.25;1.30;;;;;;;15.23;78.12;101788.06;6223018;28;20046;-82
2022/08/29 00:23:38;;;;;;;3.30;1.40;;;;;;;15.23;78.01;101778.34;6222774;28;20057;-83
2022/08/29 00:26:40;;;;;;;3.30;1.48;;;;;;;15.25;78.75;101780.03;6222392;28;20053;-83
2022/08/29 00:29:41;;;;;;;3.55;1.85;;;;;;;15.27;78.56;101788.75;6222528;28;20050;-82
2022/08/29 00:32:44;;;;;;;4.18;1.80;;;;;;;15.17;79.47;101773.41;6222655;28;20050;-82
2022/08/29 00:35:46;;;;;;;4.22;1.23;;;;;;;15.09;80.00;101772.97;6222409;28;20053;-83
2022/08/29 00:38:47;;;;;;;2.45;1.40;;;;;;;15.05;80.46;101779.38;6222635;28;20050;-83
2022/08/29 00:41:49;;;;;;;6.13;1.50;;;;;;;15.04;81.17;101776.81;6222728;28;20058;-82
2022/08/29 00:44:50;;;;;;;3.17;1.40;;;;;;;15.12;80.95;101780.72;6222352;28;20486;-83
2022/08/29 00:47:56;;;;;;;3.33;1.58;;;;;;;15.08;80.85;101779.19;6222586;28;20046;-82
2022/08/29 00:51:03;;;;;;;4.43;1.70;;;;;;;15.08;82.07;101778.31;6222415;28;20050;-82
2022/08/29 00:54:08;;;;;;;2.85;1.38;;;;;;;15.14;81.26;101780.66;6222530;28;20089;-82
2022/08/29 00:57:09;;;;;;;2.70;1.60;;;;;;;15.11;81.58;101780.81;6223022;28;20132;-82
2022/08/29 01:00:14;;;;;;;2.95;1.27;;;;;;;15.09;82.09;101774.75;6222412;28;20425;-82
2022/08/29 01:03:16;;;;;;;3.67;1.30;;;;;;;15.12;81.63;101788.66;6222557;28;20046;-83
2022/08/29 01:06:18;;;;;;;7.00;1.90;;;;;;;15.09;80.88;101780.06;6222133;28;20461;-81
2022/08/29 01:09:21;;;;;;;3.80;1.48;;;;;;;15.02;80.73;101784.81;6222691;28;20042;-84
2022/08/29 01:12:22;;;;;;;2.10;1.30;;;;;;;14.98;80.92;101780.63;6222642;28;20050;-84
2022/08/29 01:15:25;;;;;;;3.03;1.50;;;;;;;15.02;81.19;101782.16;6222476;28;20041;-83
2022/08/29 01:18:30;;;;;;;2.00;1.10;;;;;;;15.05;80.83;101781.16;6222626;28;20046;-83
2022/08/29 01:21:38;;;;;;;4.70;1.10;;;;;;;15.06;80.60;101780.22;6222862;28;20500;-84
2022/08/29 01:24:44;;;;;;;3.67;1.45;;;;;;;15.07;80.48;101769.53;6222728;28;20077;-84
2022/08/29 01:27:49;;;;;;;2.35;1.48;;;;;;;15.04;81.07;101779.47;6222479;28;20520;-84
2022/08/29 01:30:58;;;;;;;3.53;1.30;;;;;;;14.93;82.20;101790.63;6222127;28;20521;-82
2022/08/29 01:33:59;;;;;;;;;;;;;;;14.88;83.25;101784.72;6222199;28;20413;-82
2022/08/29 01:37:02;;;;;;;7.38;1.67;;;;;;;14.77;83.33;101789.75;6222438;28;19932;-81
2022/08/29 01:40:06;;;;;;;6.88;1.35;;;;;;;14.76;83.70;101786.28;6225717;28;20049;-83
2022/08/29 01:43:08;;;;;;;1.52;1.10;;;;;;;14.74;83.27;101787.28;6226517;28;20050;-84
2022/08/29 01:46:13;;;;;;;5.93;1.98;;;;;;;14.68;84.46;101783.19;6226252;28;20046;-84
2022/08/29 01:49:16;;;;;;;3.35;1.52;;;;;;;14.66;84.51;101790.31;6226877;28;20045;-84
2022/08/29 01:52:18;;;;;;;3.45;1.75;;;;;;;14.69;84.36;101788.38;6225914;28;20050;-85
2022/08/29 01:55:21;;;;;;;5.90;2.03;;;;;;;14.66;84.20;101791.19;6225583;28;20042;-84
2022/08/29 01:58:22;;;;;;;2.95;1.40;;;;;;;14.67;84.40;101794.66;6226324;28;20486;-84
2022/08/29 02:01:29;;;;;;;4.70;1.67;;;;;;;14.71;83.02;101789.13;6226087;28;20057;-83
2022/08/29 02:04:31;;;;;;;3.08;1.23;;;;;;;14.69;83.44;101792.81;6226014;28;20050;-83
2022/08/29 02:07:32;;;;;;;4.88;1.92;;;;;;;14.67;83.76;101800.84;6226211;28;20053;-84
2022/08/29 02:10:35;;;;;;;7.28;1.30;;;;;;;14.69;82.59;101806.91;6225654;28;20049;-83
2022/08/29 02:13:37;;;;;;;5.10;1.60;;;;;;;14.69;82.71;101806.03;6225905;28;20508;-84
2022/08/29 02:16:38;;;;;;;2.30;1.23;;;;;;;14.66;82.36;101811.50;6225698;28;20053;-84
2022/08/29 02:19:40;;;;;;;1.70;1.23;;;;;;;14.60;82.35;101806.53;6243335;28;20048;-83
2022/08/29 02:22:42;;;;;;;5.78;1.60;;;;;;;14.53;83.18;101799.84;6250730;28;20057;-84
2022/08/29 02:25:46;;;;;;;7.65;1.77;;;;;;;14.58;82.93;101805.75;6249216;28;20053;-84
2022/08/29 02:28:50;;;;;;;4.43;1.85;;;;;;;14.64;82.62;101802.78;6249873;28;20412;-84
2022/08/29 02:31:53;;;;;;;2.90;1.50;;;;;;;14.54;82.87;101807.72;6249737;28;20053;-83
2022/08/29 02:34:55;;;;;;;2.97;1.85;;;;;;;14.56;83.69;101811.13;6250264;28;20045;-83
2022/08/29 02:37:56;;;;;;;3.58;1.52;;;;;;;14.56;83.52;101797.06;6250251;28;20077;-83
2022/08/29 02:40:59;;;;;;;2.85;1.55;;;;;;;14.56;84.25;101786.47;6249731;28;20520;-84
2022/08/29 02:44:00;;;;;;;4.07;1.52;;;;;;;14.60;84.19;101791.50;6249359;28;20045;-84
2022/08/29 02:47:02;;;;;;;4.07;1.38;;;;;;;14.62;84.62;101791.41;6249803;28;20493;-84
2022/08/29 02:50:05;;;;;;;6.40;1.90;;;;;;;14.61;84.36;101790.56;6248237;28;20504;-84
2022/08/29 02:53:06;;;;;;;4.03;1.38;;;;;;;14.59;85.28;101794.25;6249740;28;20137;-84
2022/08/29 02:56:09;;;;;;;4.80;1.95;;;;;;;14.60;85.32;101795.94;6249133;28;20054;-84
2022/08/29 02:59:10;;;;;;;3.90;1.50;;;;;;;14.54;86.00;101791.00;6249264;28;20069;-84
2022/08/29 03:02:12;;;;;;;5.85;1.60;;;;;;;14.53;86.22;101800.69;6249361;28;20084;-82
2022/08/29 03:05:14;;;;;;;6.50;1.67;;;;;;;14.44;86.71;101790.56;6248782;28;20421;-83
2022/08/29 03:08:17;;;;;;;5.85;1.63;;;;;;;14.42;86.71;101790.66;6249502;28;20420;-84
2022/08/29 03:11:20;;;;;;;4.40;1.73;;;;;;;14.45;87.60;101794.94;6249116;28;20107;-83
2022/08/29 03:14:21;;;;;;;3.22;2.17;;;;;;;14.55;87.09;101790.06;6248912;28;20076;-80
2022/08/29 03:17:22;;;;;;;7.80;1.95;;;;;;;14.59;86.52;101788.97;6249580;28;20498;-83
2022/08/29 03:20:25;;;;;;;5.25;1.55;;;;;;;14.59;86.72;101792.47;6248407;28;20041;-84
2022/08/29 03:23:26;;;;;;;6.70;1.40;;;;;;;14.57;86.17;101796.97;6248898;28;20052;-84
2022/08/29 03:26:29;;;;;;;7.53;2.72;;;;;;;14.59;87.28;101802.19;6248283;28;20060;-84
2022/08/29 03:29:31;;;;;;;5.13;1.75;;;;;;;14.54;87.29;101799.78;6248864;28;20045;-83
2022/08/29 03:32:33;;;;;;;3.83;1.70;;;;;;;14.49;87.23;101800.94;6248503;28;20053;-83
2022/08/29 03:35:34;;;;;;;4.70;1.55;;;;;;;14.49;87.88;101795.66;6248548;28;20049;-83
2022/08/29 03:38:37;;;;;;;3.33;1.52;;;;;;;14.52;87.88;101796.34;6248478;28;20413;-83
2022/08/29 03:41:40;;;;;;;1.52;1.20;;;;;;;14.53;89.01;101800.69;6248105;28;20136;-84
2022/08/29 03:44:42;;;;;;;3.63;1.55;;;;;;;14.61;88.79;101798.50;6248036;28;20060;-82
2022/08/29 03:47:43;;;;;;;3.63;1.70;;;;;;;14.63;88.91;101799.31;6248274;28;20136;-83
2022/08/29 03:50:45;;;;;;;3.17;1.60;;;;;;;14.68;88.35;101796.41;6247803;28;20049;-83
2022/08/29 03:53:46;;;;;;;2.88;1.67;;;;;;;14.67;88.69;101798.19;6247724;28;20452;-83
2022/08/29 03:56:49;;;;;;;3.35;1.75;;;;;;;14.61;89.24;101798.50;6248546;28;20060;-81
2022/08/29 03:59:50;;;;;;;3.30;1.70;;;;;;;14.59;89.78;101800.41;6247609;28;20049;-81
2022/08/29 04:02:54;;;;;;;6.65;1.70;;;;;;;14.58;90.82;101795.16;6248034;28;20493;-81
2022/08/29 04:05:55;;;;;;;5.78;2.10;;;;;;;14.66;90.72;101799.13;6247937;28;20108;-81
2022/08/29 04:08:57;;;;;;;6.25;1.80;;;;;;;14.55;91.14;101801.50;6249331;28;20071;-81
2022/08/29 04:12:00;;;;;;;3.90;1.70;;;;;;;14.47;92.57;101806.28;6244384;28;20053;-82
2022/08/29 04:15:01;;;;;;;2.45;1.42;;;;;;;14.47;93.00;101807.16;6238717;28;20448;-78
2022/08/29 04:18:06;;;;;;;3.25;1.77;;;;;;;14.43;93.69;101810.03;6248715;28;20049;-81
2022/08/29 04:21:08;;;;;;;7.68;1.52;;;;;;;14.50;94.39;101803.53;6229554;28;20048;-81
2022/08/29 04:24:10;;;;;;;4.60;2.13;;;;;;;14.51;93.74;101802.59;6239890;28;20049;-81
2022/08/29 04:27:12;;;;;;;6.38;1.88;;;;;;;14.49;94.80;101804.47;6248246;28;20050;-81
2022/08/29 04:30:18;;;;;;;4.70;2.15;;;;;;;14.45;95.57;101800.25;6247421;28;20092;-81
2022/08/29 04:33:21;;;;;;;8.40;1.85;;;;;;;14.50;95.43;101802.69;6247937;28;20053;-81
2022/08/29 04:36:22;;;;;;;5.88;2.08;;;;;;;14.42;95.66;101811.81;6236071;28;20069;-80
2022/08/29 04:39:23;;;;;;;8.77;1.73;;;;;;;14.42;96.06;101803.03;6224149;28;20046;-80
2022/08/29 04:42:26;;;;;;;6.15;1.92;;;;;;;14.38;96.12;101806.78;6224922;28;20061;-81
2022/08/29 04:45:27;;;;;;;4.53;2.10;;;;;;;14.42;96.22;101803.88;6225046;28;20057;-81
2022/08/29 04:48:29;;;;;;;4.40;1.88;;;;;;;14.47;96.17;101804.50;6223068;28;20054;-82
2022/08/29 04:51:30;;;;;;;8.32;1.90;;;;;;;14.56;96.21;101815.56;6229699;28;20046;-81
2022/08/29 04:54:32;;;;;;;6.75;2.33;;;;;;;14.61;95.65;101809.09;6238895;28;20140;-82
2022/08/29 04:57:36;;;;;;;3.90;1.70;;;;;;;14.67;95.25;101814.06;6246520;28;20416;-79
2022/08/29 05:00:37;;;;;;;4.32;1.42;;;;;;;14.68;95.06;101810.50;6238492;28;20056;-82
2022/08/29 05:03:38;;;;;;;4.93;1.88;;;;;;;14.63;95.81;101809.03;6246046;28;20111;-81
2022/08/29 05:06:40;;;;;;;9.05;2.05;;;;;;;14.66;96.75;101808.84;6246761;28;20050;-81
2022/08/29 05:09:41;;;;;;;9.48;2.78;;;;;;;14.64;96.28;101810.72;6246736;28;20053;-81
2022/08/29 05:12:44;;;;;;;6.68;1.67;;;;;;;14.59;96.51;101813.63;6246440;28;20056;-80
2022/08/29 05:15:45;;;;;;;4.70;2.00;;;;;;;14.61;97.33;101811.75;6241698;28;20053;-81
2022/08/29 05:18:47;;;;;;;6.35;1.83;;;;;;;14.73;97.32;101809.38;6229699;28;20137;-80
2022/08/29 05:21:48;;;;;;;6.65;2.22;;;;;;;14.69;96.84;101814.84;6226689;28;20529;-81
2022/08/29 05:24:50;;;;;;;4.10;2.08;;;;;;;14.72;97.31;101816.47;6226488;28;20428;-82
2022/08/29 05:27:53;;;;;;;3.65;1.83;;;;;;;14.77;98.20;101814.44;6226892;28;20050;-80
2022/08/29 05:30:55;;;;;;;5.20;1.85;;;;;;;14.85;97.62;101824.59;6226431;28;20050;-81
2022/08/29 05:33:56;;;;;;;4.63;1.70;;;;;;;14.87;97.84;101818.28;6227110;28;20050;-80
2022/08/29 05:36:58;;;;;;;6.57;2.05;;;;;;;14.92;97.90;101826.81;6226870;28;20050;-81
2022/08/29 05:39:59;;;;;;;4.13;1.67;;;;;;;14.94;98.35;101829.38;6226776;28;20049;-81
2022/08/29 05:43:02;;;;;;;8.70;2.42;;;;;;;14.84;99.53;101836.97;6226783;28;20046;-84
2022/08/29 05:46:05;;;;;;;4.30;1.83;;;;;;;14.91;99.91;101840.16;6241285;28;20045;-82
2022/08/29 05:49:07;;;;;;;8.18;1.88;;;;;;;14.96;99.64;101840.75;6242617;28;20050;-80
2022/08/29 05:52:09;;;;;;;9.32;1.85;;;;;;;14.95;99.96;101841.69;6243139;28;20057;-81
2022/08/29 05:55:12;;;;;;;2.38;1.50;;;;;;;15.04;99.93;101843.00;6250227;28;20049;-81
2022/08/29 05:58:14;;;;;;;3.92;2.10;;;;;;;15.01;100.00;101844.00;6231075;28;20058;-80
2022/08/29 06:01:21;;;;;;;3.53;2.00;;;;;;;14.99;100.00;101837.94;6238234;28;20037;-82
2022/08/29 06:04:23;;;;;;;12.35;3.13;;;;;;;15.06;100.00;101847.25;6235386;28;20060;-81
2022/08/29 06:07:24;;;;;;;3.40;2.22;;;;;;;15.09;100.00;101851.53;6237738;28;20425;-80
2022/08/29 06:10:25;;;;;;;4.65;1.77;;;;;;;15.13;100.00;101850.44;6249528;28;20049;-80
2022/08/29 06:13:28;;;;;;;4.90;2.28;;;;;;;15.18;100.00;101851.03;6242180;28;20416;-80
2022/08/29 06:16:31;;;;;;;6.25;2.28;;;;;;;15.16;100.00;101848.44;6242348;28;20489;-81
2022/08/29 06:19:35;;;;;;;5.55;2.17;;;;;;;15.19;100.00;101850.09;6251124;28;20072;-80
2022/08/29 06:22:38;;;;;;;2.97;1.63;;;;;;;15.14;100.00;101847.69;6230477;28;20474;-79
2022/08/29 06:25:39;;;;;;;4.78;2.25;;;;;;;15.14;100.00;101850.34;6225619;28;20057;-79
2022/08/29 06:28:45;;;;;;;6.88;2.25;;;;;;;15.19;100.00;101847.44;6225111;28;20045;-77
2022/08/29 06:31:46;;;;;;;5.15;2.22;;;;;;;15.29;100.00;101845.97;6234629;28;20183;-79
2022/08/29 06:34:48;;;;;;;8.30;1.88;;;;;;;15.35;100.00;101853.63;6234941;28;20498;-78
2022/08/29 06:37:49;;;;;;;4.93;2.20;;;;;;;15.39;100.00;101851.63;6227858;28;20057;-78
2022/08/29 06:40:51;;;;;;;4.82;2.22;;;;;;;15.47;100.00;101852.91;6246203;28;20425;-79
2022/08/29 06:43:57;;;;;;;10.45;2.75;;;;;;;15.47;100.00;101860.00;6249164;28;20045;-77
2022/08/29 06:46:59;;;;;;;5.50;2.65;;;;;;;15.56;100.00;101862.13;6249514;28;20060;-79
2022/08/29 06:50:03;;;;;;;9.40;2.85;;;;;;;15.59;100.00;101861.13;6249850;28;20049;-79
2022/08/29 06:53:05;;;;;;;7.28;2.78;;;;;;;15.62;100.00;101858.28;6249219;28;20045;-78
2022/08/29 06:56:08;;;;;;;11.85;2.65;;;;;;;15.63;100.00;101855.56;6229095;28;20128;-78
2022/08/29 06:59:12;;;;;;;17.77;3.92;;;;;;;15.55;100.00;101860.44;6224118;28;20053;-78
2022/08/29 07:02:13;;;;;;;9.32;3.42;;;;;;;15.51;100.00;101863.34;6224030;28;20052;-79
2022/08/29 07:05:15;;;;;;;4.32;2.38;;;;;;;15.54;100.00;101865.81;6223880;28;20513;-79
2022/08/29 07:08:16;;;;;;;9.57;3.30;;;;;;;15.54;100.00;101866.69;6224425;28;20054;-79
2022/08/29 07:11:18;;;;;;;8.15;2.72;;;;;;;15.50;100.00;101861.63;6223772;28;20046;-80
2022/08/29 07:14:21;;;;;;;11.45;3.55;;;;;;;15.58;100.00;101867.34;6248246;28;20057;-80
2022/08/29 07:17:22;;;;;;;13.13;3.55;;;;;;;15.56;100.00;101872.72;6248524;28;20045;-79
2022/08/29 07:20:23;;;;;;;10.70;3.40;;;;;;;15.52;100.00;101871.19;6247927;28;20413;-77
2022/08/29 07:23:25;;;;;;;8.38;4.00;;;;;;;15.55;100.00;101870.19;6248389;28;20050;-80
2022/08/29 07:26:28;;;;;;;9.48;2.70;;;;;;;15.56;100.00;101866.59;6247599;28;20060;-81
2022/08/29 07:29:32;;;;;;;10.85;2.67;;;;;;;15.65;100.00;101877.53;6248273;28;20053;-81
2022/08/29 07:32:36;;;;;;;9.70;3.10;;;;;;;15.67;100.00;101878.34;6248012;28;20060;-80
2022/08/29 07:35:37;;;;;;;9.43;2.75;;;;;;;15.70;100.00;101879.94;6247249;28;20068;-80
2022/08/29 07:38:39;;;;;;;9.57;2.63;;;;;;;15.72;100.00;101870.13;6249404;28;20049;-79
2022/08/29 07:41:43;;;;;;;8.05;1.95;;;;;;;15.81;100.00;101877.53;6249927;28;20072;-79
2022/08/29 07:44:45;;;;;;;13.07;2.97;;;;;;;15.89;100.00;101867.31;6248476;28;20049;-75
2022/08/29 07:47:47;;;;;;;11.43;3.42;;;;;;;15.92;100.00;101872.47;6247718;28;20520;-80
2022/08/29 07:50:51;;;;;;;4.55;2.22;;;;;;;15.97;100.00;101874.84;6244984;28;20052;-80
2022/08/29 07:53:53;;;;;;;8.38;2.58;;;;;;;16.16;100.00;101879.94;6245694;28;20107;-81
2022/08/29 07:56:56;;;;;;;6.90;2.65;;;;;;;16.24;100.00;101873.22;6232007;28;20397;-81
2022/08/29 08:00:00;;;;;;;11.02;2.92;;;;;;;16.28;100.00;101881.88;6236684;28;20100;-82
2022/08/29 08:03:01;;;;;;;9.10;3.35;;;;;;;16.31;100.00;101881.69;6223926;28;20053;-79
2022/08/29 08:06:04;;;;;;;5.85;2.35;;;;;;;16.28;100.00;101887.19;6222731;28;20414;-79
2022/08/29 08:09:05;;;;;;;6.10;2.70;;;;;;;16.35;100.00;101891.19;6227559;28;20049;-80
2022/08/29 08:12:08;;;;;;;8.45;2.33;;;;;;;16.36;100.00;101881.44;6231899;28;20045;-80
2022/08/29 08:15:13;;;;;;;6.30;2.80;;;;;;;16.45;100.00;101883.53;6222850;28;20054;-80
2022/08/29 08:18:15;;;;;;;7.55;2.80;;;;;;;16.55;100.00;101889.97;6223541;28;20530;-79
2022/08/29 08:21:16;;;;;;;11.35;3.33;;;;;;;16.61;100.00;101883.44;6224391;28;20054;-82
2022/08/29 08:24:18;;;;;;;8.95;3.45;;;;;;;16.71;100.00;101887.25;6222664;28;20046;-81
2022/08/29 08:27:19;;;;;;;7.22;2.83;;;;;;;16.76;100.00;101892.31;6223414;28;20565;-80
2022/08/29 08:30:22;;;;;;;6.35;3.00;;;;;;;16.85;100.00;101891.75;6222522;28;20599;-81
2022/08/29 08:33:24;;;;;;;6.18;2.40;;;;;;;16.92;100.00;101893.09;6227082;28;20056;-79
2022/08/29 08:36:28;;;;;;;10.57;2.90;;;;;;;17.02;100.00;101896.88;6247229;28;20121;-81
2022/08/29 08:39:29;;;;;;;6.25;2.80;;;;;;;17.10;100.00;101891.94;6247647;28;20049;-81
2022/08/29 08:42:41;;;;;;;12.00;3.58;;;;;;;17.16;100.00;101901.31;6247284;28;20516;-81
2022/08/29 08:45:44;;;;;;;15.07;3.53;;;;;;;17.22;100.00;101896.50;6246836;28;20485;-79
2022/08/29 08:48:48;;;;;;;7.97;2.88;;;;;;;17.32;100.00;101896.75;6251100;28;20045;-81
2022/08/29 08:51:53;;;;;;;5.05;2.90;;;;;;;17.47;100.00;101894.94;6253091;28;20061;-78
2022/08/29 08:55:00;;;;;;;6.15;2.70;;;;;;;17.58;100.00;101891.59;6251924;28;20050;-79
2022/08/29 08:58:09;;;;;;;6.68;2.53;;;;;;;17.73;100.00;101896.78;6252282;28;20085;-79
2022/08/29 09:01:23;;;;;;;3.63;2.55;;;;;;;17.80;100.00;101891.91;6251617;28;20052;-79
2022/08/29 09:04:50;;;;;;;6.68;2.97;;;;;;;17.89;100.00;101896.63;6252890;28;20162;-78
2022/08/29 09:08:02;;;;;;;5.47;2.70;;;;;;;18.03;100.00;101895.72;6253128;28;20481;-81
2022/08/29 09:11:11;;;;;;;6.55;2.75;;;;;;;18.10;100.00;101888.19;6251798;28;20049;-80
2022/08/29 09:14:25;;;;;;;7.32;2.55;;;;;;;18.24;100.00;101898.75;6251442;28;20049;-80
2022/08/29 09:17:35;;;;;;;8.38;3.35;;;;;;;18.30;100.00;101897.50;6251949;28;20054;-80
2022/08/29 09:20:39;;;;;;;3.95;2.72;;;;;;;18.28;100.00;101897.59;6250489;28;20049;-78
2022/08/29 09:23:43;;;;;;;5.93;2.75;;;;;;;18.30;100.00;101900.16;6251343;28;20690;-79
2022/08/29 09:26:45;;;;;;;4.03;2.22;;;;;;;18.39;100.00;101896.88;6250706;28;20060;-78
2022/08/29 09:29:48;;;;;;;6.95;3.38;;;;;;;18.44;100.00;101902.72;6250884;28;20045;-78
2022/08/29 09:32:59;;;;;;;11.52;3.45;;;;;;;18.54;100.00;101895.00;6250421;28;20045;-79
2022/08/29 09:36:01;;;;;;;5.50;3.15;;;;;;;18.60;100.00;101899.88;6251516;28;20119;-78
2022/08/29 09:39:15;;;;;;;7.43;2.83;;;;;;;18.64;100.00;101902.22;6251384;28;20096;-79
2022/08/29 09:42:21;;;;;;;6.35;2.47;;;;;;;18.70;99.67;101893.00;6250785;28;20524;-79
2022/08/29 09:45:25;;;;;;;8.85;2.40;;;;;;;18.77;99.00;101901.41;6251624;28;20053;-81
2022/08/29 09:48:27;;;;;;;4.38;2.33;;;;;;;18.84;98.93;101887.56;6251409;28;20053;-80
2022/08/29 09:51:33;;;;;;;4.45;2.17;;;;;;;18.92;98.20;101892.34;6228345;28;20045;-79
2022/08/29 09:54:34;;;;;;;12.05;2.70;;;;;;;19.00;94.62;101892.66;6226065;28;20054;-78
2022/08/29 09:57:37;;;;;;;5.05;2.35;;;;;;;19.01;94.48;101889.88;6226102;28;20050;-78
2022/08/29 10:00:44;;;;;;;3.75;2.35;;;;;;;19.06;95.28;101888.72;6225247;28;20042;-79
2022/08/29 10:03:55;;;;;;;2.78;2.45;;;;;;;19.08;94.33;101885.00;6225839;28;20050;-78
2022/08/29 10:07:09;;;;;;;6.75;2.47;;;;;;;19.19;94.31;101886.88;6226121;28;20406;-79
2022/08/29 10:10:16;;;;;;;5.72;2.67;;;;;;;19.29;93.89;101879.91;6240888;28;20520;-78
2022/08/29 10:13:22;;;;;;;4.25;2.55;;;;;;;19.38;93.72;101883.75;6244078;28;20452;-78
2022/08/29 10:16:33;;;;;;;5.65;2.50;;;;;;;19.47;93.50;101894.59;6240918;28;20045;-77
2022/08/29 10:19:36;;;;;;;9.23;1.95;;;;;;;19.61;90.84;101890.09;6241224;28;20064;-78
2022/08/29 10:22:43;;;;;;;5.05;2.13;;;;;;;19.64;91.28;101884.53;6249374;28;20482;-77
2022/08/29 10:25:45;;;;;;;2.22;1.85;;;;;;;19.75;91.68;101893.44;6249600;28;20056;-78
2022/08/29 10:28:52;;;;;;;4.32;1.83;;;;;;;19.83;90.25;101892.03;6250113;28;20493;-79
2022/08/29 10:32:05;;;;;;;3.08;2.00;;;;;;;19.83;89.31;101890.22;6241190;28;20516;-79
2022/08/29 10:35:15;;;;;;;2.95;1.77;;;;;;;19.85;89.82;101885.63;6249262;28;20481;-79
2022/08/29 10:38:25;;;;;;;5.40;1.90;;;;;;;19.99;87.44;101888.13;6249537;28;20053;-80
2022/08/29 10:41:33;;;;;;;3.38;2.08;;;;;;;20.10;86.16;101886.44;6249196;28;20049;-80
2022/08/29 10:44:43;;;;;;;2.80;1.70;;;;;;;20.20;84.22;101880.28;6249522;28;20056;-78
2022/08/29 10:47:51;;;;;;;2.78;1.58;;;;;;;20.29;84.46;101881.41;6249651;28;20045;-78
2022/08/29 10:51:16;;;;;;;5.60;1.58;;;;;;;20.36;83.10;101876.47;6250158;28;20053;-77
2022/08/29 10:54:28;;;;;;;2.95;1.70;;;;;;;20.44;82.21;101866.91;6248672;28;20098;-78
2022/08/29 10:57:44;;;;;;;3.20;1.42;;;;;;;20.56;81.66;101869.63;6248817;28;20052;-79
2022/08/29 11:00:51;;;;;;;3.10;2.15;;;;;;;20.67;81.37;101872.31;6248578;28;20429;-75
2022/08/29 11:04:05;;;;;;;3.97;1.48;;;;;;;20.74;79.59;101870.84;6248400;28;20049;-78
2022/08/29 11:07:14;;;;;;;1.70;1.23;;;;;;;20.92;79.56;101863.22;6249035;28;20052;-77
2022/08/29 11:10:19;;;;;;;1.60;1.20;;;;;;;21.22;78.23;101862.59;6247350;28;20073;-78
2022/08/29 11:13:25;;;;;;;3.78;1.40;;;;;;;21.39;76.05;101864.78;6231502;28;20056;-77
2022/08/29 11:16:36;;;;;;;2.80;1.77;;;;;;;21.42;75.14;101864.53;6223676;28;20050;-78
2022/08/29 11:19:53;;;;;;;3.97;1.55;;;;;;;21.42;72.46;101861.84;6223994;28;20057;-79
2022/08/29 11:23:01;;;;;;;2.35;1.17;;;;;;;21.49;72.88;101865.72;6224007;28;20061;-79
2022/08/29 11:26:12;;;;;;;2.67;1.30;;;;;;;21.37;73.85;101866.72;6227278;28;20057;-78
2022/08/29 11:29:24;;;;;;;2.83;1.60;;;;;;;21.29;74.89;101875.31;6248202;28;20060;-77
2022/08/29 11:32:43;;;;;;;2.70;1.30;;;;;;;21.24;75.25;101874.00;6319141;28;20355;-79
2022/08/29 11:35:57;;;;;;;7.82;1.95;;;;;;;21.09;74.90;101870.75;6318531;28;20048;-76
2022/08/29 11:39:24;;;;;;;2.17;1.40;;;;;;;21.04;75.34;101883.63;6318492;28;20044;-78
2022/08/29 11:42:31;;;;;;;3.50;1.23;;;;;;;21.08;73.99;101881.56;6318222;28;20423;-76
2022/08/29 11:45:37;;;;;;;3.03;1.17;;;;;;;21.13;73.75;101871.34;6318577;28;20052;-79
2022/08/29 11:48:43;;;;;;;2.10;1.13;;;;;;;21.22;73.08;101874.13;6318848;28;20048;-79
2022/08/29 11:51:50;;;;;;;0.95;0.80;;;;;;;21.44;72.66;101873.28;6317690;28;20051;-78
2022/08/29 11:55:08;;;;;;;6.45;1.00;;;;;;;21.66;71.84;101872.34;6310827;28;20048;-79
2022/08/29 11:58:41;;;;;;;2.00;1.15;;;;;;;21.80;69.87;101871.22;6293689;28;20048;-79
2022/08/29 12:01:59;;;;;;;1.13;0.80;;;;;;;21.84;68.83;101869.13;6310161;28;20499;-79
2022/08/29 12:05:04;;;;;;;1.63;0.90;;;;;;;21.83;67.91;101870.97;6314431;28;20508;-80
2022/08/29 12:08:12;;;;;;;5.78;2.25;;;;;;;22.07;67.57;101854.66;6303058;28;20416;-79
2022/08/29 12:11:14;;;;;;;0.70;0.70;;;;;;;22.29;67.63;101856.41;6310814;28;20052;-79
2022/08/29 12:14:29;;;;;;;0.90;0.70;;;;;;;22.38;64.87;101858.31;6292148;28;20053;-78
2022/08/29 12:17:44;;;;;;;0.65;0.65;;;;;;;22.76;61.98;101860.38;6310089;28;20050;-76
2022/08/29 12:20:48;;;;;;;0.70;0.65;;;;;;;23.31;61.59;101857.34;6312050;28;20043;-80
2022/08/29 12:23:49;;;;;;;0.50;0.50;;;;;;;23.53;58.52;101849.06;6318211;28;20048;-80
2022/08/29 12:26:51;;;;;;;1.02;0.52;;;;;;;23.24;56.53;101846.28;6318370;28;20059;-78
2022/08/29 12:29:53;;;;;;;0.55;0.52;;;;;;;23.13;57.62;101837.53;6317407;28;20059;-77
2022/08/29 12:33:06;;;;;;;0.50;0.50;;;;;;;22.92;59.04;101834.91;6317715;28;20050;-77
2022/08/29 12:36:19;;;;;;;4.13;0.60;;;;;;;22.85;59.57;101825.69;6316771;28;20052;-77
2022/08/29 12:39:42;;;;;;;0.40;0.40;;;;;;;23.25;58.42;101821.16;6318750;28;20051;-78
2022/08/29 12:42:52;;;;;;;1.25;0.65;;;;;;;23.85;57.07;101815.75;6306504;28;20492;-77
2022/08/29 12:45:55;;;;;;;0.70;0.63;;;;;;;24.26;55.41;101809.19;6293571;28;20127;-77
2022/08/29 12:49:08;;;;;;;2.55;0.70;;;;;;;24.39;55.13;101810.72;6300367;28;20131;-77
2022/08/29 12:52:23;;;;;;;2.25;0.82;;;;;;;23.99;56.48;101807.25;6300328;28;20041;-77
2022/08/29 12:55:27;;;;;;;1.83;0.77;;;;;;;23.49;57.28;101810.06;6295623;28;20041;-76
2022/08/29 12:58:39;;;;;;;1.05;0.95;;;;;;;23.21;58.22;101811.72;6300028;28;20059;-78
2022/08/29 13:01:40;;;;;;;1.10;0.75;;;;;;;23.14;59.33;101810.56;6299850;28;20052;-78
2022/08/29 13:04:43;;;;;;;0.95;0.77;;;;;;;22.96;59.15;101806.84;6299335;28;20052;-77
2022/08/29 13:07:55;;;;;;;1.38;0.63;;;;;;;23.36;57.24;101801.44;6299280;28;20051;-76
2022/08/29 13:10:59;;;;;;;0.80;0.60;;;;;;;23.42;57.22;101795.50;6299792;28;20050;-77
2022/08/29 13:14:04;;;;;;;1.08;0.70;;;;;;;23.26;57.93;101796.06;6299689;28;20432;-76
2022/08/29 13:17:14;;;;;;;1.15;0.70;;;;;;;22.94;58.84;101807.00;6293936;28;20048;-75
2022/08/29 13:20:41;;;;;;;0.55;0.55;;;;;;;23.11;58.60;101799.25;6299215;28;20055;-77
2022/08/29 13:23:45;;;;;;;0.65;0.60;;;;;;;23.50;57.15;101786.75;6300520;28;20048;-78
2022/08/29 13:26:52;;;;;;;0.52;0.50;;;;;;;23.99;54.63;101775.03;6300111;28;20056;-78
2022/08/29 13:29:59;;;;;;;0.45;0.45;;;;;;;23.89;53.11;101779.56;6299549;28;20513;-76
2022/08/29 13:33:01;;;;;;;0.85;0.60;;;;;;;24.25;53.18;101777.06;6301206;28;20593;-77
2022/08/29 13:36:28;;;;;;;0.70;0.70;;;;;;;24.51;52.59;101780.00;6301568;28;20060;-78
2022/08/29 13:39:43;;;;;;;0.73;0.70;;;;;;;24.43;49.26;101785.25;6299560;28;20045;-76
2022/08/29 13:42:45;;;;;;;0.50;0.43;;;;;;;24.62;48.94;101774.44;6299776;28;20048;-76
2022/08/29 13:45:46;;;;;;;0.85;0.65;;;;;;;24.96;48.37;101772.00;6299953;28;20049;-76
2022/08/29 13:48:58;;;;;;;1.42;0.70;;;;;;;25.08;47.66;101763.75;6299618;28;20405;-76
2022/08/29 13:52:01;;;;;;;0.40;0.40;;;;;;;25.24;47.75;101766.59;6299739;28;20040;-78
2022/08/29 13:55:05;;;;;;;1.02;0.68;;;;;;;25.23;46.60;101770.28;6297650;28;20139;-77
2022/08/29 13:58:09;;;;;;;0.50;0.50;;;;;;;25.39;43.98;101757.00;6299596;28;20185;-77
2022/08/29 14:01:10;;;;;;;0.40;0.35;;;;;;;25.65;42.20;101754.34;6299780;28;20055;-78
2022/08/29 14:04:12;;;;;;;1.00;0.40;;;;;;;25.38;42.83;101766.06;6299456;28;20048;-75
2022/08/29 14:07:19;;;;;;;2.78;0.50;;;;;;;24.92;44.18;101765.22;6299558;28;20462;-78
2022/08/29 14:10:22;;;;;;;0.50;0.50;;;;;;;24.52;44.78;101755.66;6298565;28;20056;-78
2022/08/29 14:13:24;;;;;;;1.75;0.60;;;;;;;24.28;45.00;101763.34;6299406;28;20412;-77
2022/08/29 14:16:25;;;;;;;0.40;0.40;;;;;;;23.98;46.81;101748.31;6298394;28;20049;-78